sensor_id;sensor_type;location;lat;lon;timestamp;P1;durP1;ratioP1;P2;durP2;ratioP2
81150;SDS011;70629;-26.026;27.976;2023-08-17T00:00:16;19.80;;;10.20;;
81150;SDS011;70629;-26.026;27.976;2023-08-17T00:01:52;14.70;;;9.70;;
81150;SDS011;70629;-26.026;27.976;2023-08-17T00:03:27;18.58;;;10.55;;
81150;SDS011;70629;-26.026;27.976;2023-08-17T00:05:02;15.65;;;9.85;;
81150;SDS011;70629;-26.026;27.976;2023-08-17T00:06:37;17.50;;;9.85;;
81150;SDS011;70629;-26.026;27.976;2023-08-17T00:09:46;15.60;;;9.48;;
81150;SDS011;70629;-26.026;27.976;2023-08-17T00:11:22;15.27;;;9.73;;
81150;SDS011;70629;-26.026;27.976;2023-08-17T00:12:57;19.40;;;10.35;;
81150;SDS011;70629;-26.026;27.976;2023-08-17T00:14:32;16.58;;;10.95;;
81150;SDS011;70629;-26.026;27.976;2023-08-17T00:16:07;24.77;;;11.13;;
81150;SDS011;70629;-26.026;27.976;2023-08-17T00:17:42;17.08;;;9.38;;
81150;SDS011;70629;-26.026;27.976;2023-08-17T00:19:17;15.57;;;10.90;;
81150;SDS011;70629;-26.026;27.976;2023-08-17T00:20:52;20.33;;;11.73;;
81150;SDS011;70629;-26.026;27.976;2023-08-17T00:22:27;18.08;;;10.80;;
81150;SDS011;70629;-26.026;27.976;2023-08-17T00:24:02;21.80;;;11.90;;
81150;SDS011;70629;-26.026;27.976;2023-08-17T00:25:37;26.48;;;12.60;;
81150;SDS011;70629;-26.026;27.976;2023-08-17T00:27:12;20.13;;;11.98;;
81150;SDS011;70629;-26.026;27.976;2023-08-17T00:28:46;19.17;;;10.73;;
81150;SDS011;70629;-26.026;27.976;2023-08-17T00:30:22;16.95;;;10.93;;
81150;SDS011;70629;-26.026;27.976;2023-08-17T00:31:56;21.48;;;11.60;;
81150;SDS011;70629;-26.026;27.976;2023-08-17T00:33:31;20.38;;;12.05;;
81150;SDS011;70629;-26.026;27.976;2023-08-17T00:35:06;18.95;;;12.27;;
81150;SDS011;70629;-26.026;27.976;2023-08-17T00:36:42;20.52;;;11.52;;
81150;SDS011;70629;-26.026;27.976;2023-08-17T00:39:51;21.17;;;11.35;;
81150;SDS011;70629;-26.026;27.976;2023-08-17T00:41:26;19.77;;;11.77;;
81150;SDS011;70629;-26.026;27.976;2023-08-17T00:43:03;19.95;;;12.73;;
81150;SDS011;70629;-26.026;27.976;2023-08-17T00:44:39;19.73;;;11.93;;
81150;SDS011;70629;-26.026;27.976;2023-08-17T00:47:48;18.48;;;10.57;;
81150;SDS011;70629;-26.026;27.976;2023-08-17T00:49:23;17.67;;;11.13;;
81150;SDS011;70629;-26.026;27.976;2023-08-17T00:50:58;17.23;;;10.82;;
81150;SDS011;70629;-26.026;27.976;2023-08-17T00:52:34;16.27;;;10.20;;
81150;SDS011;70629;-26.026;27.976;2023-08-17T00:54:09;19.15;;;12.15;;
81150;SDS011;70629;-26.026;27.976;2023-08-17T00:55:45;19.08;;;11.38;;
81150;SDS011;70629;-26.026;27.976;2023-08-17T00:57:20;18.92;;;11.57;;
81150;SDS011;70629;-26.026;27.976;2023-08-17T00:58:57;19.02;;;11.77;;
81150;SDS011;70629;-26.026;27.976;2023-08-17T01:00:32;18.00;;;12.02;;
81150;SDS011;70629;-26.026;27.976;2023-08-17T01:02:07;17.35;;;11.55;;
81150;SDS011;70629;-26.026;27.976;2023-08-17T01:03:43;22.10;;;13.23;;
81150;SDS011;70629;-26.026;27.976;2023-08-17T01:05:17;20.02;;;11.75;;
81150;SDS011;70629;-26.026;27.976;2023-08-17T01:06:53;17.92;;;11.88;;
81150;SDS011;70629;-26.026;27.976;2023-08-17T01:08:28;18.55;;;12.20;;
81150;SDS011;70629;-26.026;27.976;2023-08-17T01:10:04;18.80;;;11.82;;
81150;SDS011;70629;-26.026;27.976;2023-08-17T01:11:46;17.92;;;10.75;;
81150;SDS011;70629;-26.026;27.976;2023-08-17T01:13:44;15.57;;;10.95;;
81150;SDS011;70629;-26.026;27.976;2023-08-17T01:15:45;16.83;;;11.25;;
81150;SDS011;70629;-26.026;27.976;2023-08-17T01:17:43;16.23;;;10.13;;
81150;SDS011;70629;-26.026;27.976;2023-08-17T01:19:23;17.27;;;11.02;;
81150;SDS011;70629;-26.026;27.976;2023-08-17T01:21:00;19.27;;;11.35;;
81150;SDS011;70629;-26.026;27.976;2023-08-17T01:22:41;17.35;;;10.57;;
81150;SDS011;70629;-26.026;27.976;2023-08-17T01:24:19;18.23;;;10.30;;
81150;SDS011;70629;-26.026;27.976;2023-08-17T01:25:53;16.70;;;10.25;;
81150;SDS011;70629;-26.026;27.976;2023-08-17T01:27:41;16.05;;;10.55;;
81150;SDS011;70629;-26.026;27.976;2023-08-17T01:29:20;18.75;;;11.35;;
81150;SDS011;70629;-26.026;27.976;2023-08-17T01:34:22;18.33;;;10.32;;
81150;SDS011;70629;-26.026;27.976;2023-08-17T01:36:11;16.75;;;10.07;;
81150;SDS011;70629;-26.026;27.976;2023-08-17T01:38:02;18.52;;;11.13;;
81150;SDS011;70629;-26.026;27.976;2023-08-17T01:41:18;15.23;;;9.65;;
81150;SDS011;70629;-26.026;27.976;2023-08-17T01:42:56;16.65;;;10.00;;
81150;SDS011;70629;-26.026;27.976;2023-08-17T01:44:32;17.08;;;11.00;;
81150;SDS011;70629;-26.026;27.976;2023-08-17T01:46:07;18.50;;;10.57;;
81150;SDS011;70629;-26.026;27.976;2023-08-17T01:47:42;17.85;;;11.40;;
81150;SDS011;70629;-26.026;27.976;2023-08-17T01:49:17;16.00;;;10.85;;
81150;SDS011;70629;-26.026;27.976;2023-08-17T01:50:52;16.90;;;10.27;;
81150;SDS011;70629;-26.026;27.976;2023-08-17T01:52:27;17.05;;;10.98;;
81150;SDS011;70629;-26.026;27.976;2023-08-17T01:54:02;18.05;;;10.88;;
81150;SDS011;70629;-26.026;27.976;2023-08-17T01:55:38;18.95;;;10.52;;
81150;SDS011;70629;-26.026;27.976;2023-08-17T01:57:13;16.42;;;10.68;;
81150;SDS011;70629;-26.026;27.976;2023-08-17T02:00:22;15.65;;;10.40;;
81150;SDS011;70629;-26.026;27.976;2023-08-17T02:01:57;17.17;;;10.70;;
81150;SDS011;70629;-26.026;27.976;2023-08-17T02:03:32;19.20;;;11.38;;
81150;SDS011;70629;-26.026;27.976;2023-08-17T02:05:07;18.20;;;10.75;;
81150;SDS011;70629;-26.026;27.976;2023-08-17T02:06:42;16.67;;;10.38;;
81150;SDS011;70629;-26.026;27.976;2023-08-17T02:09:52;16.65;;;10.52;;
81150;SDS011;70629;-26.026;27.976;2023-08-17T02:11:27;17.65;;;11.75;;
81150;SDS011;70629;-26.026;27.976;2023-08-17T02:14:50;19.08;;;10.50;;
81150;SDS011;70629;-26.026;27.976;2023-08-17T02:16:25;18.55;;;10.98;;
81150;SDS011;70629;-26.026;27.976;2023-08-17T02:18:00;17.95;;;11.63;;
81150;SDS011;70629;-26.026;27.976;2023-08-17T02:19:35;16.35;;;11.57;;
81150;SDS011;70629;-26.026;27.976;2023-08-17T02:21:10;18.30;;;12.00;;
81150;SDS011;70629;-26.026;27.976;2023-08-17T02:22:45;17.20;;;11.25;;
81150;SDS011;70629;-26.026;27.976;2023-08-17T02:24:20;19.23;;;11.95;;
81150;SDS011;70629;-26.026;27.976;2023-08-17T02:25:55;19.38;;;12.30;;
81150;SDS011;70629;-26.026;27.976;2023-08-17T02:29:05;17.60;;;10.82;;
81150;SDS011;70629;-26.026;27.976;2023-08-17T02:30:40;20.00;;;11.45;;
81150;SDS011;70629;-26.026;27.976;2023-08-17T02:32:15;18.95;;;11.77;;
81150;SDS011;70629;-26.026;27.976;2023-08-17T02:33:50;19.63;;;11.75;;
81150;SDS011;70629;-26.026;27.976;2023-08-17T02:35:25;21.70;;;12.13;;
81150;SDS011;70629;-26.026;27.976;2023-08-17T02:37:00;20.33;;;12.82;;
81150;SDS011;70629;-26.026;27.976;2023-08-17T02:38:35;16.55;;;11.57;;
81150;SDS011;70629;-26.026;27.976;2023-08-17T02:40:10;19.40;;;12.18;;
81150;SDS011;70629;-26.026;27.976;2023-08-17T02:41:45;17.75;;;11.48;;
81150;SDS011;70629;-26.026;27.976;2023-08-17T02:43:23;19.10;;;11.40;;
81150;SDS011;70629;-26.026;27.976;2023-08-17T02:44:58;21.05;;;11.48;;
81150;SDS011;70629;-26.026;27.976;2023-08-17T02:48:07;20.00;;;10.77;;
81150;SDS011;70629;-26.026;27.976;2023-08-17T02:49:42;19.38;;;11.90;;
81150;SDS011;70629;-26.026;27.976;2023-08-17T02:52:51;18.80;;;11.90;;
81150;SDS011;70629;-26.026;27.976;2023-08-17T02:54:26;18.58;;;11.32;;
81150;SDS011;70629;-26.026;27.976;2023-08-17T02:57:36;17.77;;;11.15;;
81150;SDS011;70629;-26.026;27.976;2023-08-17T02:59:10;18.20;;;11.70;;
81150;SDS011;70629;-26.026;27.976;2023-08-17T03:00:46;19.25;;;12.10;;
81150;SDS011;70629;-26.026;27.976;2023-08-17T03:02:20;19.80;;;11.23;;
81150;SDS011;70629;-26.026;27.976;2023-08-17T03:03:55;16.85;;;11.48;;
81150;SDS011;70629;-26.026;27.976;2023-08-17T03:07:05;15.60;;;9.32;;
81150;SDS011;70629;-26.026;27.976;2023-08-17T03:10:14;18.30;;;10.35;;
81150;SDS011;70629;-26.026;27.976;2023-08-17T03:11:49;17.98;;;10.70;;
81150;SDS011;70629;-26.026;27.976;2023-08-17T03:13:25;17.50;;;10.60;;
81150;SDS011;70629;-26.026;27.976;2023-08-17T03:15:00;16.85;;;10.98;;
81150;SDS011;70629;-26.026;27.976;2023-08-17T03:16:35;16.35;;;11.23;;
81150;SDS011;70629;-26.026;27.976;2023-08-17T03:18:10;19.27;;;12.55;;
81150;SDS011;70629;-26.026;27.976;2023-08-17T03:19:45;15.85;;;11.27;;
81150;SDS011;70629;-26.026;27.976;2023-08-17T03:21:19;16.98;;;11.50;;
81150;SDS011;70629;-26.026;27.976;2023-08-17T03:22:55;17.40;;;10.82;;
81150;SDS011;70629;-26.026;27.976;2023-08-17T03:26:04;17.13;;;10.23;;
81150;SDS011;70629;-26.026;27.976;2023-08-17T03:27:39;17.33;;;10.63;;
81150;SDS011;70629;-26.026;27.976;2023-08-17T03:29:14;19.13;;;11.77;;
81150;SDS011;70629;-26.026;27.976;2023-08-17T03:30:49;18.52;;;11.20;;
81150;SDS011;70629;-26.026;27.976;2023-08-17T03:32:24;17.92;;;11.05;;
81150;SDS011;70629;-26.026;27.976;2023-08-17T03:33:59;18.95;;;11.57;;
81150;SDS011;70629;-26.026;27.976;2023-08-17T03:35:34;18.67;;;11.82;;
81150;SDS011;70629;-26.026;27.976;2023-08-17T03:38:43;16.95;;;10.23;;
81150;SDS011;70629;-26.026;27.976;2023-08-17T03:40:18;16.25;;;11.18;;
81150;SDS011;70629;-26.026;27.976;2023-08-17T03:41:53;18.25;;;11.00;;
81150;SDS011;70629;-26.026;27.976;2023-08-17T03:45:02;16.88;;;10.57;;
81150;SDS011;70629;-26.026;27.976;2023-08-17T03:46:38;18.15;;;11.88;;
81150;SDS011;70629;-26.026;27.976;2023-08-17T03:48:13;20.02;;;12.07;;
81150;SDS011;70629;-26.026;27.976;2023-08-17T03:49:48;17.55;;;11.43;;
81150;SDS011;70629;-26.026;27.976;2023-08-17T03:51:23;18.33;;;10.75;;
81150;SDS011;70629;-26.026;27.976;2023-08-17T03:52:58;15.18;;;10.77;;
81150;SDS011;70629;-26.026;27.976;2023-08-17T03:54:33;21.38;;;11.35;;
81150;SDS011;70629;-26.026;27.976;2023-08-17T03:56:08;18.45;;;11.82;;
81150;SDS011;70629;-26.026;27.976;2023-08-17T03:57:43;19.90;;;12.30;;
81150;SDS011;70629;-26.026;27.976;2023-08-17T03:59:17;17.63;;;11.60;;
81150;SDS011;70629;-26.026;27.976;2023-08-17T04:00:53;20.20;;;10.75;;
81150;SDS011;70629;-26.026;27.976;2023-08-17T04:02:28;20.58;;;12.02;;
81150;SDS011;70629;-26.026;27.976;2023-08-17T04:04:03;20.40;;;12.50;;
81150;SDS011;70629;-26.026;27.976;2023-08-17T04:05:38;17.60;;;12.30;;
81150;SDS011;70629;-26.026;27.976;2023-08-17T04:07:14;20.77;;;12.82;;
81150;SDS011;70629;-26.026;27.976;2023-08-17T04:08:54;21.38;;;12.10;;
81150;SDS011;70629;-26.026;27.976;2023-08-17T04:10:29;21.88;;;12.15;;
81150;SDS011;70629;-26.026;27.976;2023-08-17T04:12:04;18.48;;;12.63;;
81150;SDS011;70629;-26.026;27.976;2023-08-17T04:13:39;20.00;;;12.30;;
81150;SDS011;70629;-26.026;27.976;2023-08-17T04:15:14;19.38;;;11.57;;
81150;SDS011;70629;-26.026;27.976;2023-08-17T04:16:49;21.17;;;12.75;;
81150;SDS011;70629;-26.026;27.976;2023-08-17T04:18:24;25.88;;;12.48;;
81150;SDS011;70629;-26.026;27.976;2023-08-17T04:19:59;22.35;;;12.70;;
81150;SDS011;70629;-26.026;27.976;2023-08-17T04:21:34;25.27;;;12.60;;
81150;SDS011;70629;-26.026;27.976;2023-08-17T04:23:09;19.33;;;12.07;;
81150;SDS011;70629;-26.026;27.976;2023-08-17T04:24:44;22.80;;;12.45;;
81150;SDS011;70629;-26.026;27.976;2023-08-17T04:26:19;19.38;;;12.55;;
81150;SDS011;70629;-26.026;27.976;2023-08-17T04:27:54;22.17;;;12.27;;
81150;SDS011;70629;-26.026;27.976;2023-08-17T04:29:30;19.60;;;12.75;;
81150;SDS011;70629;-26.026;27.976;2023-08-17T04:31:05;17.00;;;10.75;;
81150;SDS011;70629;-26.026;27.976;2023-08-17T04:32:40;23.77;;;12.90;;
81150;SDS011;70629;-26.026;27.976;2023-08-17T04:34:15;19.60;;;12.70;;
81150;SDS011;70629;-26.026;27.976;2023-08-17T04:35:50;22.15;;;13.82;;
81150;SDS011;70629;-26.026;27.976;2023-08-17T04:37:25;21.35;;;13.85;;
81150;SDS011;70629;-26.026;27.976;2023-08-17T04:39:01;24.65;;;14.55;;
81150;SDS011;70629;-26.026;27.976;2023-08-17T04:40:38;23.98;;;14.35;;
81150;SDS011;70629;-26.026;27.976;2023-08-17T04:42:13;20.83;;;13.95;;
81150;SDS011;70629;-26.026;27.976;2023-08-17T04:43:48;21.55;;;12.73;;
81150;SDS011;70629;-26.026;27.976;2023-08-17T04:46:58;24.23;;;13.63;;
81150;SDS011;70629;-26.026;27.976;2023-08-17T04:48:33;21.35;;;13.63;;
81150;SDS011;70629;-26.026;27.976;2023-08-17T04:50:08;24.00;;;13.25;;
81150;SDS011;70629;-26.026;27.976;2023-08-17T04:51:43;21.63;;;14.50;;
81150;SDS011;70629;-26.026;27.976;2023-08-17T04:54:53;21.95;;;12.82;;
81150;SDS011;70629;-26.026;27.976;2023-08-17T04:58:02;17.83;;;10.98;;
81150;SDS011;70629;-26.026;27.976;2023-08-17T04:59:37;19.52;;;13.25;;
81150;SDS011;70629;-26.026;27.976;2023-08-17T05:01:12;22.35;;;14.73;;
81150;SDS011;70629;-26.026;27.976;2023-08-17T05:02:47;21.13;;;13.32;;
81150;SDS011;70629;-26.026;27.976;2023-08-17T05:04:22;23.80;;;13.88;;
81150;SDS011;70629;-26.026;27.976;2023-08-17T05:05:57;24.23;;;15.82;;
81150;SDS011;70629;-26.026;27.976;2023-08-17T05:07:32;23.98;;;14.38;;
81150;SDS011;70629;-26.026;27.976;2023-08-17T05:09:07;26.05;;;14.95;;
81150;SDS011;70629;-26.026;27.976;2023-08-17T05:10:43;21.95;;;13.60;;
81150;SDS011;70629;-26.026;27.976;2023-08-17T05:12:18;23.05;;;14.52;;
81150;SDS011;70629;-26.026;27.976;2023-08-17T05:13:53;26.42;;;14.45;;
81150;SDS011;70629;-26.026;27.976;2023-08-17T05:17:02;20.50;;;12.80;;
81150;SDS011;70629;-26.026;27.976;2023-08-17T05:18:37;26.38;;;14.68;;
81150;SDS011;70629;-26.026;27.976;2023-08-17T05:20:12;27.42;;;14.25;;
81150;SDS011;70629;-26.026;27.976;2023-08-17T05:21:47;24.17;;;14.25;;
81150;SDS011;70629;-26.026;27.976;2023-08-17T05:23:24;23.08;;;14.60;;
81150;SDS011;70629;-26.026;27.976;2023-08-17T05:24:59;22.33;;;14.95;;
81150;SDS011;70629;-26.026;27.976;2023-08-17T05:26:34;21.67;;;15.23;;
81150;SDS011;70629;-26.026;27.976;2023-08-17T05:28:09;25.58;;;15.57;;
81150;SDS011;70629;-26.026;27.976;2023-08-17T05:31:18;19.50;;;13.02;;
81150;SDS011;70629;-26.026;27.976;2023-08-17T05:32:53;23.70;;;13.93;;
81150;SDS011;70629;-26.026;27.976;2023-08-17T05:34:28;25.85;;;14.88;;
81150;SDS011;70629;-26.026;27.976;2023-08-17T05:36:03;26.30;;;15.38;;
81150;SDS011;70629;-26.026;27.976;2023-08-17T05:37:38;22.92;;;14.80;;
81150;SDS011;70629;-26.026;27.976;2023-08-17T05:39:13;28.85;;;16.23;;
81150;SDS011;70629;-26.026;27.976;2023-08-17T05:40:53;21.92;;;14.68;;
81150;SDS011;70629;-26.026;27.976;2023-08-17T05:42:32;24.98;;;15.23;;
81150;SDS011;70629;-26.026;27.976;2023-08-17T05:44:07;27.38;;;16.10;;
81150;SDS011;70629;-26.026;27.976;2023-08-17T05:45:42;28.10;;;14.80;;
81150;SDS011;70629;-26.026;27.976;2023-08-17T05:47:17;23.13;;;15.30;;
81150;SDS011;70629;-26.026;27.976;2023-08-17T05:48:53;25.60;;;16.17;;
81150;SDS011;70629;-26.026;27.976;2023-08-17T05:50:28;27.55;;;15.23;;
81150;SDS011;70629;-26.026;27.976;2023-08-17T05:52:03;29.30;;;15.40;;
81150;SDS011;70629;-26.026;27.976;2023-08-17T05:53:38;28.25;;;16.58;;
81150;SDS011;70629;-26.026;27.976;2023-08-17T05:56:47;26.23;;;15.10;;
81150;SDS011;70629;-26.026;27.976;2023-08-17T05:58:23;28.23;;;15.55;;
81150;SDS011;70629;-26.026;27.976;2023-08-17T05:59:58;31.90;;;16.08;;
81150;SDS011;70629;-26.026;27.976;2023-08-17T06:01:33;31.80;;;17.00;;
81150;SDS011;70629;-26.026;27.976;2023-08-17T06:03:08;27.55;;;16.02;;
81150;SDS011;70629;-26.026;27.976;2023-08-17T06:04:43;27.75;;;16.05;;
81150;SDS011;70629;-26.026;27.976;2023-08-17T06:06:18;23.70;;;15.48;;
81150;SDS011;70629;-26.026;27.976;2023-08-17T06:07:53;24.92;;;16.10;;
81150;SDS011;70629;-26.026;27.976;2023-08-17T06:09:28;28.42;;;17.88;;
81150;SDS011;70629;-26.026;27.976;2023-08-17T06:11:03;33.10;;;18.75;;
81150;SDS011;70629;-26.026;27.976;2023-08-17T06:12:38;30.45;;;19.17;;
81150;SDS011;70629;-26.026;27.976;2023-08-17T06:14:13;38.10;;;21.90;;
81150;SDS011;70629;-26.026;27.976;2023-08-17T06:15:48;41.47;;;22.88;;
81150;SDS011;70629;-26.026;27.976;2023-08-17T06:17:23;32.95;;;21.65;;
81150;SDS011;70629;-26.026;27.976;2023-08-17T06:18:58;42.08;;;23.88;;
81150;SDS011;70629;-26.026;27.976;2023-08-17T06:20:33;35.58;;;22.08;;
81150;SDS011;70629;-26.026;27.976;2023-08-17T06:23:43;35.13;;;20.98;;
81150;SDS011;70629;-26.026;27.976;2023-08-17T06:25:18;32.25;;;20.67;;
81150;SDS011;70629;-26.026;27.976;2023-08-17T06:26:53;40.88;;;22.63;;
81150;SDS011;70629;-26.026;27.976;2023-08-17T06:28:28;40.08;;;21.75;;
81150;SDS011;70629;-26.026;27.976;2023-08-17T06:30:03;41.35;;;23.98;;
81150;SDS011;70629;-26.026;27.976;2023-08-17T06:31:38;37.47;;;21.92;;
81150;SDS011;70629;-26.026;27.976;2023-08-17T06:34:48;38.45;;;22.88;;
81150;SDS011;70629;-26.026;27.976;2023-08-17T06:36:23;33.10;;;21.48;;
81150;SDS011;70629;-26.026;27.976;2023-08-17T06:37:58;37.50;;;22.15;;
81150;SDS011;70629;-26.026;27.976;2023-08-17T06:39:33;35.33;;;21.75;;
81150;SDS011;70629;-26.026;27.976;2023-08-17T06:41:10;34.88;;;20.70;;
81150;SDS011;70629;-26.026;27.976;2023-08-17T06:42:45;37.00;;;20.35;;
81150;SDS011;70629;-26.026;27.976;2023-08-17T06:44:20;35.63;;;20.27;;
81150;SDS011;70629;-26.026;27.976;2023-08-17T06:45:56;31.15;;;17.33;;
81150;SDS011;70629;-26.026;27.976;2023-08-17T06:47:31;33.92;;;17.52;;
81150;SDS011;70629;-26.026;27.976;2023-08-17T06:49:06;27.90;;;17.75;;
81150;SDS011;70629;-26.026;27.976;2023-08-17T06:50:42;32.13;;;18.92;;
81150;SDS011;70629;-26.026;27.976;2023-08-17T06:52:17;29.75;;;18.30;;
81150;SDS011;70629;-26.026;27.976;2023-08-17T06:53:52;32.53;;;17.27;;
81150;SDS011;70629;-26.026;27.976;2023-08-17T06:55:27;30.30;;;17.55;;
81150;SDS011;70629;-26.026;27.976;2023-08-17T06:57:02;35.80;;;19.52;;
81150;SDS011;70629;-26.026;27.976;2023-08-17T06:58:37;31.77;;;18.48;;
81150;SDS011;70629;-26.026;27.976;2023-08-17T07:00:12;31.15;;;17.35;;
81150;SDS011;70629;-26.026;27.976;2023-08-17T07:01:48;28.27;;;17.83;;
81150;SDS011;70629;-26.026;27.976;2023-08-17T07:03:23;26.00;;;15.90;;
81150;SDS011;70629;-26.026;27.976;2023-08-17T07:04:57;28.35;;;16.13;;
81150;SDS011;70629;-26.026;27.976;2023-08-17T07:06:32;26.23;;;15.73;;
81150;SDS011;70629;-26.026;27.976;2023-08-17T07:08:09;28.08;;;16.35;;
81150;SDS011;70629;-26.026;27.976;2023-08-17T07:09:44;25.85;;;14.88;;
81150;SDS011;70629;-26.026;27.976;2023-08-17T07:11:19;25.35;;;15.77;;
81150;SDS011;70629;-26.026;27.976;2023-08-17T07:12:54;22.23;;;16.33;;
81150;SDS011;70629;-26.026;27.976;2023-08-17T07:14:29;25.45;;;16.33;;
81150;SDS011;70629;-26.026;27.976;2023-08-17T07:16:04;23.38;;;15.30;;
81150;SDS011;70629;-26.026;27.976;2023-08-17T07:17:39;27.88;;;16.67;;
81150;SDS011;70629;-26.026;27.976;2023-08-17T07:19:14;25.70;;;14.40;;
81150;SDS011;70629;-26.026;27.976;2023-08-17T07:20:49;51.33;;;21.17;;
81150;SDS011;70629;-26.026;27.976;2023-08-17T07:22:24;32.45;;;18.33;;
81150;SDS011;70629;-26.026;27.976;2023-08-17T07:24:08;44.30;;;26.52;;
81150;SDS011;70629;-26.026;27.976;2023-08-17T07:25:49;23.17;;;14.18;;
81150;SDS011;70629;-26.026;27.976;2023-08-17T07:27:24;21.33;;;13.93;;
81150;SDS011;70629;-26.026;27.976;2023-08-17T07:29:00;23.38;;;13.13;;
81150;SDS011;70629;-26.026;27.976;2023-08-17T07:30:35;21.48;;;15.07;;
81150;SDS011;70629;-26.026;27.976;2023-08-17T07:32:10;22.20;;;14.65;;
81150;SDS011;70629;-26.026;27.976;2023-08-17T07:33:45;50.65;;;25.23;;
81150;SDS011;70629;-26.026;27.976;2023-08-17T07:35:20;36.67;;;22.45;;
81150;SDS011;70629;-26.026;27.976;2023-08-17T07:36:55;29.17;;;17.00;;
81150;SDS011;70629;-26.026;27.976;2023-08-17T07:38:30;27.38;;;14.90;;
81150;SDS011;70629;-26.026;27.976;2023-08-17T07:40:05;29.38;;;17.55;;
81150;SDS011;70629;-26.026;27.976;2023-08-17T07:41:41;25.02;;;16.08;;
81150;SDS011;70629;-26.026;27.976;2023-08-17T07:43:16;30.95;;;18.15;;
81150;SDS011;70629;-26.026;27.976;2023-08-17T07:44:51;30.52;;;17.90;;
81150;SDS011;70629;-26.026;27.976;2023-08-17T07:46:26;37.00;;;19.98;;
81150;SDS011;70629;-26.026;27.976;2023-08-17T07:48:01;27.10;;;15.68;;
81150;SDS011;70629;-26.026;27.976;2023-08-17T07:49:36;22.90;;;14.80;;
81150;SDS011;70629;-26.026;27.976;2023-08-17T07:51:11;22.92;;;13.02;;
81150;SDS011;70629;-26.026;27.976;2023-08-17T07:52:46;30.45;;;16.77;;
81150;SDS011;70629;-26.026;27.976;2023-08-17T07:54:21;39.80;;;22.30;;
81150;SDS011;70629;-26.026;27.976;2023-08-17T07:55:56;24.67;;;15.57;;
81150;SDS011;70629;-26.026;27.976;2023-08-17T07:57:31;19.85;;;12.82;;
81150;SDS011;70629;-26.026;27.976;2023-08-17T07:59:06;24.42;;;14.10;;
81150;SDS011;70629;-26.026;27.976;2023-08-17T08:00:41;23.23;;;13.90;;
81150;SDS011;70629;-26.026;27.976;2023-08-17T08:02:17;19.88;;;13.25;;
81150;SDS011;70629;-26.026;27.976;2023-08-17T08:03:52;20.25;;;13.35;;
81150;SDS011;70629;-26.026;27.976;2023-08-17T08:05:27;21.08;;;13.43;;
81150;SDS011;70629;-26.026;27.976;2023-08-17T08:07:02;19.83;;;13.60;;
81150;SDS011;70629;-26.026;27.976;2023-08-17T08:08:37;25.92;;;14.65;;
81150;SDS011;70629;-26.026;27.976;2023-08-17T08:10:12;21.33;;;13.90;;
81150;SDS011;70629;-26.026;27.976;2023-08-17T08:11:48;20.60;;;13.30;;
81150;SDS011;70629;-26.026;27.976;2023-08-17T08:13:25;22.92;;;13.40;;
81150;SDS011;70629;-26.026;27.976;2023-08-17T08:15:01;21.75;;;14.10;;
81150;SDS011;70629;-26.026;27.976;2023-08-17T08:16:36;26.88;;;15.60;;
81150;SDS011;70629;-26.026;27.976;2023-08-17T08:18:11;30.25;;;14.40;;
81150;SDS011;70629;-26.026;27.976;2023-08-17T08:19:46;19.23;;;13.95;;
81150;SDS011;70629;-26.026;27.976;2023-08-17T08:21:21;23.50;;;14.57;;
81150;SDS011;70629;-26.026;27.976;2023-08-17T08:22:57;20.40;;;13.77;;
81150;SDS011;70629;-26.026;27.976;2023-08-17T08:24:32;21.85;;;13.65;;
81150;SDS011;70629;-26.026;27.976;2023-08-17T08:26:11;22.02;;;11.60;;
81150;SDS011;70629;-26.026;27.976;2023-08-17T08:27:46;18.13;;;12.10;;
81150;SDS011;70629;-26.026;27.976;2023-08-17T08:29:21;20.38;;;13.38;;
81150;SDS011;70629;-26.026;27.976;2023-08-17T08:31:00;26.00;;;13.25;;
81150;SDS011;70629;-26.026;27.976;2023-08-17T08:32:37;27.60;;;13.77;;
81150;SDS011;70629;-26.026;27.976;2023-08-17T08:34:12;21.33;;;12.82;;
81150;SDS011;70629;-26.026;27.976;2023-08-17T08:35:47;27.92;;;13.55;;
81150;SDS011;70629;-26.026;27.976;2023-08-17T08:37:22;19.67;;;13.32;;
81150;SDS011;70629;-26.026;27.976;2023-08-17T08:38:58;20.40;;;12.95;;
81150;SDS011;70629;-26.026;27.976;2023-08-17T08:40:33;22.38;;;13.75;;
81150;SDS011;70629;-26.026;27.976;2023-08-17T08:42:12;31.88;;;13.90;;
81150;SDS011;70629;-26.026;27.976;2023-08-17T08:43:47;21.85;;;13.82;;
81150;SDS011;70629;-26.026;27.976;2023-08-17T08:45:22;21.15;;;14.57;;
81150;SDS011;70629;-26.026;27.976;2023-08-17T08:46:58;19.23;;;13.38;;
81150;SDS011;70629;-26.026;27.976;2023-08-17T08:48:33;22.48;;;13.38;;
81150;SDS011;70629;-26.026;27.976;2023-08-17T08:50:09;22.85;;;14.07;;
81150;SDS011;70629;-26.026;27.976;2023-08-17T08:51:50;22.02;;;13.88;;
81150;SDS011;70629;-26.026;27.976;2023-08-17T08:53:42;27.30;;;15.95;;
81150;SDS011;70629;-26.026;27.976;2023-08-17T08:55:21;27.40;;;19.63;;
81150;SDS011;70629;-26.026;27.976;2023-08-17T08:57:03;25.33;;;19.27;;
81150;SDS011;70629;-26.026;27.976;2023-08-17T08:58:40;25.27;;;16.95;;
81150;SDS011;70629;-26.026;27.976;2023-08-17T09:00:17;26.23;;;18.30;;
81150;SDS011;70629;-26.026;27.976;2023-08-17T09:01:52;29.33;;;17.63;;
81150;SDS011;70629;-26.026;27.976;2023-08-17T09:03:27;36.63;;;19.88;;
81150;SDS011;70629;-26.026;27.976;2023-08-17T09:05:08;29.67;;;20.50;;
81150;SDS011;70629;-26.026;27.976;2023-08-17T09:06:45;27.08;;;20.35;;
81150;SDS011;70629;-26.026;27.976;2023-08-17T09:08:21;26.70;;;19.38;;
81150;SDS011;70629;-26.026;27.976;2023-08-17T09:09:57;30.42;;;22.48;;
81150;SDS011;70629;-26.026;27.976;2023-08-17T09:11:32;34.90;;;23.15;;
81150;SDS011;70629;-26.026;27.976;2023-08-17T09:13:07;32.13;;;23.00;;
81150;SDS011;70629;-26.026;27.976;2023-08-17T09:14:42;34.30;;;23.33;;
81150;SDS011;70629;-26.026;27.976;2023-08-17T09:16:18;28.63;;;19.90;;
81150;SDS011;70629;-26.026;27.976;2023-08-17T09:17:56;29.35;;;19.52;;
81150;SDS011;70629;-26.026;27.976;2023-08-17T09:19:32;24.80;;;18.50;;
81150;SDS011;70629;-26.026;27.976;2023-08-17T09:21:07;28.02;;;17.30;;
81150;SDS011;70629;-26.026;27.976;2023-08-17T09:22:43;33.78;;;21.17;;
81150;SDS011;70629;-26.026;27.976;2023-08-17T09:24:18;33.97;;;20.60;;
81150;SDS011;70629;-26.026;27.976;2023-08-17T09:25:53;30.25;;;21.52;;
81150;SDS011;70629;-26.026;27.976;2023-08-17T09:27:37;35.17;;;20.50;;
81150;SDS011;70629;-26.026;27.976;2023-08-17T09:29:18;29.95;;;21.23;;
81150;SDS011;70629;-26.026;27.976;2023-08-17T09:30:58;31.42;;;22.75;;
81150;SDS011;70629;-26.026;27.976;2023-08-17T09:32:33;31.80;;;22.67;;
81150;SDS011;70629;-26.026;27.976;2023-08-17T09:34:09;30.83;;;22.35;;
81150;SDS011;70629;-26.026;27.976;2023-08-17T09:35:43;26.85;;;21.67;;
81150;SDS011;70629;-26.026;27.976;2023-08-17T09:37:19;33.80;;;21.13;;
81150;SDS011;70629;-26.026;27.976;2023-08-17T09:38:53;23.70;;;18.48;;
81150;SDS011;70629;-26.026;27.976;2023-08-17T09:40:30;24.75;;;17.88;;
81150;SDS011;70629;-26.026;27.976;2023-08-17T09:42:05;29.48;;;17.27;;
81150;SDS011;70629;-26.026;27.976;2023-08-17T09:43:40;23.65;;;15.75;;
81150;SDS011;70629;-26.026;27.976;2023-08-17T09:45:17;21.17;;;15.02;;